Terminal Aerodrome Forecast
Issued by NWS

Home | Current Version | Previous Version | Text Only | Print | Product List | Glossary On
Versions: 1 2 3 4 5 6 7 8 9 10 11 12 13 14 15 16 17 18
000
FTUS43 KGRB 252336
TAFCWA
TAF
KCWA 252336Z 2600/2624 30010KT P6SM SKC
     FM260200 VRB02KT P6SM SKC
      TEMPO 2608/2612 3SM BR
     FM261500 25007KT P6SM FEW030
     FM261900 26010KT P6SM SCT040 BKN100
      AMD LTD TO CLD VIS AND WIND 2603/2611=

USA.gov is the U.S. government's official web portal to all federal, state and local government web resources and services.